Terminal Aerodrome Forecast
Issued by NWS Albany, NY

Home | Current Version | Previous Version | Text Only | Print | Product List | Glossary On
Versions: 1 2 3 4 5 6 7 8 9 10 11 12 13 14 15 16 17 18 19 20 21 22 23 24 25 26 27 28 29 30 31 32
628
FTUS41 KALY 240528
TAFGFL
TAF
KGFL 240528Z 2406/2506 02012KT 5SM -FZRAPL SCT040 OVC060
     FM241000 01010KT 2SM -SNPL BR BKN009 OVC015
     FM241400 01007KT 5SM -RASN BR BKN015 OVC025
     FM242100 36005KT 2SM -SNPL BR BKN009 OVC015=

USA.gov is the U.S. government's official web portal to all federal, state and local government web resources and services.